createdAt,value
2018-11-23T00:00:14.799Z,18.33
2018-11-23T00:02:43.522Z,19.23
2018-11-23T00:05:10.940Z,17.17
2018-11-23T00:07:38.837Z,18.90
2018-11-23T00:10:08.294Z,18.17
2018-11-23T00:12:35.770Z,18.80
2018-11-23T00:15:03.425Z,16.77
2018-11-23T00:17:30.843Z,18.07
2018-11-23T00:19:58.363Z,19.33
2018-11-23T00:22:25.820Z,18.60
2018-11-23T00:24:53.223Z,20.10
2018-11-23T00:27:20.719Z,18.20
2018-11-23T00:29:48.215Z,17.93
2018-11-23T00:32:15.637Z,20.67
2018-11-23T00:34:43.036Z,18.67
2018-11-23T00:37:10.507Z,18.50
2018-11-23T00:39:37.996Z,18.60
2018-11-23T00:42:05.491Z,19.47
2018-11-23T00:44:32.907Z,19.90
2018-11-23T00:47:00.321Z,19.77
2018-11-23T00:49:27.767Z,19.80
2018-11-23T00:51:55.199Z,19.33
2018-11-23T00:54:22.625Z,18.20
2018-11-23T00:56:50.107Z,18.17
2018-11-23T00:59:17.556Z,19.50
2018-11-23T01:01:50.739Z,18.53
2018-11-23T01:04:18.286Z,17.97
2018-11-23T01:06:45.776Z,19.03
2018-11-23T01:09:14.579Z,19.40
2018-11-23T01:11:43.038Z,19.33
2018-11-23T01:14:10.979Z,19.20
2018-11-23T01:16:38.884Z,19.17
2018-11-23T01:19:06.759Z,19.33
2018-11-23T01:21:34.544Z,19.07
2018-11-23T01:24:02.064Z,21.57
2018-11-23T01:26:29.472Z,19.20
2018-11-23T01:28:57.028Z,20.77
2018-11-23T01:31:24.464Z,20.80
2018-11-23T01:33:51.902Z,19.23
2018-11-23T01:36:19.389Z,19.70
2018-11-23T01:38:46.786Z,20.27
2018-11-23T01:41:14.173Z,22.37
2018-11-23T01:43:41.747Z,20.13
2018-11-23T01:46:09.292Z,20.93
2018-11-23T01:48:36.723Z,19.60
2018-11-23T01:51:04.224Z,21.20
2018-11-23T01:53:31.652Z,21.50
2018-11-23T01:55:59.098Z,21.17
2018-11-23T01:58:26.828Z,20.03
2018-11-23T02:00:54.216Z,18.90
2018-11-23T02:03:21.685Z,21.00
2018-11-23T02:05:49.100Z,18.93
2018-11-23T02:08:16.623Z,18.30
2018-11-23T02:10:44.034Z,20.40
2018-11-23T02:13:11.440Z,18.27
2018-11-23T02:15:38.854Z,18.60
2018-11-23T02:18:06.256Z,19.00
2018-11-23T02:20:33.821Z,17.47
2018-11-23T02:23:01.261Z,17.80
2018-11-23T02:25:28.683Z,19.60
2018-11-23T02:27:56.236Z,19.30
2018-11-23T02:30:24.838Z,18.90
2018-11-23T02:32:52.241Z,19.30
2018-11-23T02:35:19.661Z,17.87
2018-11-23T02:37:47.105Z,18.73
2018-11-23T02:40:16.842Z,17.57
2018-11-23T02:42:44.394Z,19.20
2018-11-23T02:45:14.214Z,18.37
2018-11-23T02:47:42.599Z,18.33
2018-11-23T02:50:10.163Z,18.90
2018-11-23T02:52:38.106Z,18.53
2018-11-23T02:55:06.274Z,18.03
2018-11-23T02:57:33.802Z,19.50
2018-11-23T03:00:01.325Z,20.40
2018-11-23T03:02:28.747Z,20.27
2018-11-23T03:04:56.174Z,18.80
2018-11-23T03:07:23.615Z,19.60
2018-11-23T03:09:50.990Z,18.20
2018-11-23T03:12:18.430Z,19.30
2018-11-23T03:14:45.848Z,18.97
2018-11-23T03:17:13.247Z,18.37
2018-11-23T03:19:40.691Z,19.03
2018-11-23T03:22:08.107Z,21.13
2018-11-23T03:24:35.699Z,19.87
2018-11-23T03:27:03.235Z,18.87
2018-11-23T03:29:30.634Z,19.50
2018-11-23T03:31:58.202Z,20.47
2018-11-23T03:34:25.619Z,19.57
2018-11-23T03:36:53.060Z,19.70
2018-11-23T03:39:20.434Z,19.70
2018-11-23T03:41:47.983Z,19.97
2018-11-23T03:44:15.531Z,18.20
2018-11-23T03:46:42.912Z,20.00
2018-11-23T03:49:10.342Z,20.40
2018-11-23T03:51:37.747Z,21.63
2018-11-23T03:54:05.336Z,18.97
2018-11-23T03:56:32.867Z,19.67
2018-11-23T03:59:00.289Z,18.97
2018-11-23T04:01:27.720Z,21.37
2018-11-23T04:03:55.259Z,21.37
2018-11-23T04:06:22.663Z,21.27
2018-11-23T04:08:50.319Z,20.40
2018-11-23T04:11:17.724Z,21.83
2018-11-23T04:13:45.229Z,22.07
2018-11-23T04:16:12.759Z,21.60
2018-11-23T04:18:40.159Z,21.07
2018-11-23T04:21:07.666Z,20.10
2018-11-23T04:23:35.084Z,22.63
2018-11-23T04:26:02.634Z,20.83
2018-11-23T04:28:30.022Z,20.90
2018-11-23T04:30:57.423Z,19.00
2018-11-23T04:33:25.526Z,21.30
2018-11-23T04:35:53.165Z,18.97
2018-11-23T04:38:20.578Z,18.33
2018-11-23T04:40:48.102Z,19.60
2018-11-23T04:43:15.626Z,21.47
2018-11-23T04:45:43.026Z,19.30
2018-11-23T04:48:10.445Z,19.80
2018-11-23T04:50:37.866Z,18.03
2018-11-23T04:53:05.378Z,17.80
2018-11-23T04:55:32.828Z,18.93
2018-11-23T04:58:00.258Z,19.97
2018-11-23T05:00:27.649Z,20.10
2018-11-23T05:02:55.065Z,19.87
2018-11-23T05:05:22.462Z,18.37
2018-11-23T05:07:49.878Z,19.77
2018-11-23T05:10:17.794Z,20.20
2018-11-23T05:12:45.201Z,18.80
2018-11-23T05:15:13.893Z,21.30
2018-11-23T05:17:41.787Z,21.30
2018-11-23T05:20:10.165Z,20.07
2018-11-23T05:22:38.346Z,19.70
2018-11-23T05:25:06.802Z,18.80
2018-11-23T05:27:34.277Z,19.33
2018-11-23T05:30:02.037Z,19.23
2018-11-23T05:32:29.487Z,18.03
2018-11-23T05:34:57.192Z,18.63
2018-11-23T05:37:24.619Z,19.90
2018-11-23T05:39:52.032Z,19.13
2018-11-23T05:42:19.528Z,20.83
2018-11-23T05:44:46.930Z,19.57
2018-11-23T05:47:14.352Z,20.03
2018-11-23T05:49:41.763Z,20.77
2018-11-23T05:52:09.253Z,20.93
2018-11-23T05:54:36.689Z,20.70
2018-11-23T05:57:04.124Z,19.53
2018-11-23T05:59:31.535Z,16.90
2018-11-23T06:01:58.958Z,18.23
2018-11-23T06:04:26.355Z,20.27
2018-11-23T06:06:53.802Z,19.67
2018-11-23T06:09:21.282Z,19.20
2018-11-23T06:11:48.762Z,20.00
2018-11-23T06:14:16.159Z,19.33
2018-11-23T06:16:43.596Z,19.87
2018-11-23T06:19:10.989Z,19.70
2018-11-23T06:21:38.412Z,20.07
2018-11-23T06:24:06.045Z,22.17
2018-11-23T06:26:33.719Z,20.70
2018-11-23T06:29:01.110Z,18.97
2018-11-23T06:31:28.643Z,21.33
2018-11-23T06:33:56.140Z,20.20
2018-11-23T06:36:23.654Z,18.70
2018-11-23T06:38:51.162Z,20.47
2018-11-23T06:41:18.563Z,20.80
2018-11-23T06:43:46.538Z,20.20
2018-11-23T06:46:13.998Z,21.80
2018-11-23T06:48:41.397Z,19.33
2018-11-23T06:51:09.050Z,20.13
2018-11-23T06:53:36.657Z,20.97
2018-11-23T06:56:04.843Z,21.37
2018-11-23T06:58:32.307Z,20.30
2018-11-23T07:00:59.835Z,20.50
2018-11-23T07:03:27.417Z,22.33
2018-11-23T07:05:55.323Z,20.90
2018-11-23T07:08:23.403Z,19.60
2018-11-23T07:10:50.874Z,20.93
2018-11-23T07:13:18.326Z,21.10
2018-11-23T07:15:45.781Z,21.30
2018-11-23T07:18:13.180Z,21.70
2018-11-23T07:20:40.622Z,20.67
2018-11-23T07:23:08.118Z,23.53
2018-11-23T07:25:35.690Z,22.50
2018-11-23T07:28:03.272Z,23.33
2018-11-23T07:30:30.919Z,24.70
2018-11-23T07:32:58.385Z,22.87
2018-11-23T07:35:25.826Z,23.60
2018-11-23T07:37:53.454Z,22.90
2018-11-23T07:40:34.078Z,24.60
2018-11-23T07:43:01.522Z,23.20
2018-11-23T07:45:28.958Z,22.30
2018-11-23T07:47:56.407Z,24.10
2018-11-23T07:50:23.844Z,23.33
2018-11-23T07:52:51.354Z,23.33
2018-11-23T07:55:18.892Z,20.70
2018-11-23T07:57:46.707Z,22.13
2018-11-23T08:00:16.438Z,22.20
2018-11-23T08:02:44.551Z,22.30
2018-11-23T08:05:13.379Z,21.57
2018-11-23T08:07:40.884Z,22.50
2018-11-23T08:10:09.467Z,22.10
2018-11-23T08:12:37.311Z,21.50
2018-11-23T08:15:07.459Z,22.20
2018-11-23T08:17:34.951Z,21.97
2018-11-23T08:20:02.531Z,22.90
2018-11-23T08:22:29.993Z,21.87
2018-11-23T08:24:57.390Z,21.40
2018-11-23T08:27:24.867Z,22.50
2018-11-23T08:29:52.325Z,19.87
2018-11-23T08:32:19.899Z,22.67
2018-11-23T08:34:47.531Z,23.00
2018-11-23T08:37:14.987Z,21.80
2018-11-23T08:39:42.474Z,24.43
2018-11-23T08:42:10.033Z,22.77
2018-11-23T08:44:37.414Z,22.83
2018-11-23T08:47:05.019Z,23.80
2018-11-23T08:49:32.433Z,23.20
2018-11-23T08:51:59.839Z,21.87
2018-11-23T08:54:27.341Z,21.17
2018-11-23T08:56:54.804Z,22.57
2018-11-23T08:59:22.280Z,22.97
2018-11-23T09:01:50.627Z,21.77
2018-11-23T09:04:18.059Z,20.33
2018-11-23T09:06:45.506Z,23.37
2018-11-23T09:09:12.945Z,21.77
2018-11-23T09:11:40.466Z,24.20
2018-11-23T09:14:08.921Z,21.23
2018-11-23T09:16:36.322Z,23.80
2018-11-23T09:19:04.035Z,22.90
2018-11-23T09:21:31.598Z,22.90
2018-11-23T09:23:59.061Z,23.30
2018-11-23T09:26:26.606Z,24.30
2018-11-23T09:28:53.975Z,24.67
2018-11-23T09:31:21.419Z,22.30
2018-11-23T09:33:48.838Z,23.17
2018-11-23T09:36:16.289Z,25.10
2018-11-23T09:38:43.718Z,22.37
2018-11-23T09:41:11.182Z,25.17
2018-11-23T09:43:38.658Z,20.67
2018-11-23T09:46:06.183Z,23.80
2018-11-23T09:48:33.695Z,23.83
2018-11-23T09:51:01.187Z,22.83
2018-11-23T09:53:28.601Z,22.20
2018-11-23T09:55:56.090Z,23.00
2018-11-23T09:58:23.585Z,23.00
2018-11-23T10:00:51.066Z,21.53
2018-11-23T10:03:18.583Z,22.47
2018-11-23T10:05:46.107Z,22.90
2018-11-23T10:08:13.537Z,23.50
2018-11-23T10:10:41.076Z,23.40
2018-11-23T10:13:08.554Z,23.80
2018-11-23T10:15:35.982Z,21.67
2018-11-23T10:18:03.482Z,25.03
2018-11-23T10:20:32.108Z,21.10
2018-11-23T10:22:59.530Z,21.57
2018-11-23T10:25:28.491Z,22.70
2018-11-23T10:27:56.255Z,21.93
2018-11-23T10:30:26.119Z,23.07
2018-11-23T10:32:55.047Z,22.83
2018-11-23T10:35:22.802Z,23.03
2018-11-23T10:37:51.629Z,22.40
2018-11-23T10:40:20.382Z,21.07
2018-11-23T10:42:47.833Z,22.27
2018-11-23T10:45:17.344Z,21.73
2018-11-23T10:47:45.330Z,22.80
2018-11-23T10:50:14.688Z,22.80
2018-11-23T10:52:42.165Z,21.23
2018-11-23T10:55:12.391Z,21.40
2018-11-23T10:57:39.823Z,20.80
2018-11-23T11:00:14.638Z,22.27
2018-11-23T11:02:44.195Z,20.33
2018-11-23T11:05:17.271Z,20.67
2018-11-23T11:07:44.826Z,21.03
2018-11-23T11:10:12.895Z,21.17
2018-11-23T11:12:41.215Z,23.57
2018-11-23T11:15:08.976Z,20.33
2018-11-23T11:17:36.511Z,20.77
2018-11-23T11:20:04.499Z,20.40
2018-11-23T11:22:32.202Z,21.23
2018-11-23T11:24:59.594Z,18.97
2018-11-23T11:27:27.063Z,20.70
2018-11-23T11:29:54.538Z,21.53
2018-11-23T11:32:21.967Z,21.80
2018-11-23T11:34:49.539Z,21.53
2018-11-23T11:37:17.009Z,19.80
2018-11-23T11:39:44.427Z,18.93
2018-11-23T11:42:12.288Z,20.37
2018-11-23T11:44:39.723Z,18.20
2018-11-23T11:47:07.199Z,19.60
2018-11-23T11:49:34.635Z,19.53
2018-11-23T11:52:02.079Z,19.53
2018-11-23T11:54:29.447Z,20.37
2018-11-23T11:56:56.909Z,22.10
2018-11-23T11:59:24.296Z,20.83
2018-11-23T12:01:51.715Z,19.27
2018-11-23T12:04:19.238Z,17.80
2018-11-23T12:06:47.102Z,18.90
2018-11-23T12:09:14.526Z,19.60
2018-11-23T12:11:41.951Z,18.47
2018-11-23T12:14:09.380Z,19.80
2018-11-23T12:16:36.914Z,18.97
2018-11-23T12:19:05.623Z,19.20
2018-11-23T12:21:32.365Z,17.40
2018-11-23T12:23:59.760Z,17.07
2018-11-23T12:26:27.206Z,17.10
2018-11-23T12:28:54.606Z,16.57
2018-11-23T12:31:22.041Z,17.30
2018-11-23T12:33:49.461Z,15.53
2018-11-23T12:36:16.917Z,15.93
2018-11-23T12:38:44.364Z,18.17
2018-11-23T12:41:11.816Z,16.43
2018-11-23T12:43:39.359Z,17.87
2018-11-23T12:46:06.784Z,16.40
2018-11-23T12:48:34.208Z,16.83
2018-11-23T12:51:01.737Z,16.93
2018-11-23T12:53:29.148Z,14.67
2018-11-23T12:55:56.679Z,17.43
2018-11-23T12:58:24.257Z,15.77
2018-11-23T13:00:51.819Z,16.20
2018-11-23T13:03:19.246Z,16.83
2018-11-23T13:05:46.662Z,15.90
2018-11-23T13:08:14.065Z,17.57
2018-11-23T13:10:41.543Z,14.20
2018-11-23T13:13:11.955Z,15.47
2018-11-23T13:15:39.526Z,16.40
2018-11-23T13:18:06.955Z,15.67
2018-11-23T13:20:34.383Z,17.37
2018-11-23T13:23:01.856Z,16.23
2018-11-23T13:25:30.771Z,15.73
2018-11-23T13:27:58.500Z,16.07
2018-11-23T13:30:28.315Z,15.80
2018-11-23T13:32:55.894Z,16.10
2018-11-23T13:35:25.429Z,16.67
2018-11-23T13:37:53.154Z,16.60
2018-11-23T13:40:21.942Z,15.93
2018-11-23T13:42:49.990Z,13.33
2018-11-23T13:45:18.880Z,14.47
2018-11-23T13:47:46.341Z,15.50
2018-11-23T13:50:15.228Z,15.73
2018-11-23T13:52:43.806Z,16.30
2018-11-23T13:55:11.398Z,16.33
2018-11-23T13:57:38.838Z,19.33
2018-11-23T14:00:11.694Z,15.57
2018-11-23T14:02:39.307Z,14.50
2018-11-23T14:05:09.467Z,15.60
2018-11-23T14:07:36.990Z,14.83
2018-11-23T14:10:07.389Z,15.10
2018-11-23T14:12:34.829Z,13.83
2018-11-23T14:15:02.308Z,13.80
2018-11-23T14:17:29.725Z,14.83
2018-11-23T14:19:58.169Z,12.77
2018-11-23T14:22:25.603Z,12.83
2018-11-23T14:24:53.122Z,12.17
2018-11-23T14:27:20.565Z,13.20
2018-11-23T14:29:48.019Z,13.27
2018-11-23T14:32:15.439Z,11.97
2018-11-23T14:34:42.871Z,11.40
2018-11-23T14:37:10.343Z,13.37
2018-11-23T14:39:37.734Z,11.13
2018-11-23T14:42:05.547Z,11.10
2018-11-23T14:44:33.040Z,11.17
2018-11-23T14:47:00.595Z,11.80
2018-11-23T14:49:27.995Z,12.43
2018-11-23T14:51:55.446Z,10.97
2018-11-23T14:54:22.912Z,9.80
2018-11-23T14:56:50.363Z,11.27
2018-11-23T14:59:17.779Z,12.23
2018-11-23T15:01:48.312Z,12.23
2018-11-23T15:04:12.675Z,10.90
2018-11-23T15:06:40.162Z,10.60
2018-11-23T15:09:08.923Z,10.50
2018-11-23T15:11:36.819Z,11.17
2018-11-23T15:14:05.018Z,11.00
2018-11-23T15:16:32.501Z,10.90
2018-11-23T15:18:59.975Z,12.50
2018-11-23T15:21:27.396Z,11.57
2018-11-23T15:23:54.931Z,12.47
2018-11-23T15:26:22.389Z,11.37
2018-11-23T15:28:49.786Z,11.97
2018-11-23T15:31:17.204Z,12.27
2018-11-23T15:33:44.743Z,11.47
2018-11-23T15:36:12.319Z,13.30
2018-11-23T15:38:39.805Z,12.00
2018-11-23T15:41:07.211Z,12.20
2018-11-23T15:43:34.655Z,11.80
2018-11-23T15:46:02.138Z,10.67
2018-11-23T15:48:29.643Z,12.50
2018-11-23T15:51:01.556Z,13.37
2018-11-23T15:53:28.999Z,11.27
2018-11-23T15:55:56.531Z,13.17
2018-11-23T15:58:23.997Z,15.18
2018-11-23T16:00:51.387Z,13.40
2018-11-23T16:03:18.828Z,12.53
2018-11-23T16:05:46.243Z,12.53
2018-11-23T16:08:16.151Z,13.50
2018-11-23T16:10:43.561Z,11.60
2018-11-23T16:13:11.758Z,14.27
2018-11-23T16:15:38.911Z,12.40
2018-11-23T16:18:07.172Z,13.70
2018-11-23T16:20:36.890Z,13.90
2018-11-23T16:23:06.151Z,12.53
2018-11-23T16:25:33.813Z,13.40
2018-11-23T16:28:02.843Z,12.60
2018-11-23T16:30:31.851Z,13.57
2018-11-23T16:33:00.495Z,15.50
2018-11-23T16:35:29.435Z,12.50
2018-11-23T16:37:58.059Z,14.47
2018-11-23T16:40:26.860Z,14.00
2018-11-23T16:42:55.090Z,12.60
2018-11-23T16:45:25.345Z,12.90
2018-11-23T16:47:53.625Z,14.07
2018-11-23T16:50:21.092Z,13.80
2018-11-23T16:52:49.292Z,18.73
2018-11-23T16:55:17.856Z,14.80
2018-11-23T16:57:46.911Z,14.70
2018-11-23T17:00:18.657Z,13.60
2018-11-23T17:02:46.170Z,15.53
2018-11-23T17:05:15.103Z,14.57
2018-11-23T17:07:42.611Z,15.90
2018-11-23T17:10:11.975Z,12.37
2018-11-23T17:12:40.005Z,16.00
2018-11-23T17:15:09.493Z,14.57
2018-11-23T17:17:37.319Z,16.70
2018-11-23T17:20:06.066Z,14.93
2018-11-23T17:22:33.508Z,13.17
2018-11-23T17:25:00.927Z,16.13
2018-11-23T17:27:28.450Z,15.57
2018-11-23T17:29:56.032Z,14.00
2018-11-23T17:32:23.668Z,13.40
2018-11-23T17:34:51.190Z,15.00
2018-11-23T17:37:18.644Z,14.37
2018-11-23T17:39:46.231Z,14.50
2018-11-23T17:42:13.830Z,15.13
2018-11-23T17:44:41.234Z,14.10
2018-11-23T17:47:08.698Z,14.43
2018-11-23T17:49:36.141Z,13.90
2018-11-23T17:52:04.016Z,15.10
2018-11-23T17:54:31.441Z,14.60
2018-11-23T17:56:58.896Z,14.67
2018-11-23T17:59:30.851Z,16.07
2018-11-23T18:01:58.444Z,15.10
2018-11-23T18:04:25.932Z,17.33
2018-11-23T18:06:53.388Z,15.13
2018-11-23T18:09:20.816Z,14.47
2018-11-23T18:11:48.407Z,14.93
2018-11-23T18:14:15.861Z,16.90
2018-11-23T18:16:43.380Z,16.07
2018-11-23T18:19:10.896Z,15.83
2018-11-23T18:21:38.297Z,15.90
2018-11-23T18:24:05.752Z,17.23
2018-11-23T18:26:33.226Z,15.73
2018-11-23T18:29:00.732Z,15.10
2018-11-23T18:31:28.248Z,15.57
2018-11-23T18:33:55.854Z,15.37
2018-11-23T18:36:23.366Z,16.53
2018-11-23T18:38:50.854Z,15.53
2018-11-23T18:41:18.395Z,16.30
2018-11-23T18:43:45.949Z,15.70
2018-11-23T18:46:13.373Z,14.37
2018-11-23T18:48:40.825Z,15.30
2018-11-23T18:51:08.298Z,16.70
2018-11-23T18:53:35.878Z,14.83
2018-11-23T18:56:03.360Z,15.30
2018-11-23T18:58:30.820Z,17.27
2018-11-23T19:00:58.241Z,18.07
2018-11-23T19:03:25.688Z,17.60
2018-11-23T19:05:53.121Z,16.17
2018-11-23T19:08:20.550Z,17.83
2018-11-23T19:10:48.595Z,18.27
2018-11-23T19:13:16.134Z,16.70
2018-11-23T19:15:43.537Z,18.33
2018-11-23T19:18:11.018Z,18.13
2018-11-23T19:20:38.461Z,17.57
2018-11-23T19:23:05.969Z,18.13
2018-11-23T19:25:33.420Z,15.80
2018-11-23T19:28:00.880Z,16.70
2018-11-23T19:30:29.049Z,16.57
2018-11-23T19:32:55.809Z,16.50
2018-11-23T19:35:23.373Z,15.97
2018-11-23T19:37:50.932Z,17.20
2018-11-23T19:40:18.392Z,15.90
2018-11-23T19:42:45.828Z,15.20
2018-11-23T19:45:15.523Z,15.70
2018-11-23T19:47:42.999Z,15.00
2018-11-23T19:50:12.544Z,15.73
2018-11-23T19:52:40.596Z,16.53
2018-11-23T19:55:08.996Z,16.93
2018-11-23T19:57:36.626Z,15.10
2018-11-23T20:00:09.785Z,15.10
2018-11-23T20:02:37.343Z,16.10
2018-11-23T20:05:07.239Z,16.67
2018-11-23T20:07:34.750Z,15.37
2018-11-23T20:10:02.293Z,16.30
2018-11-23T20:12:29.750Z,15.63
2018-11-23T20:15:01.291Z,14.10
2018-11-23T20:17:27.723Z,15.00
2018-11-23T20:19:55.123Z,15.00
2018-11-23T20:22:22.642Z,14.90
2018-11-23T20:24:50.086Z,16.30
2018-11-23T20:27:17.496Z,14.93
2018-11-23T20:29:44.920Z,15.97
2018-11-23T20:32:12.380Z,15.53
2018-11-23T20:34:39.840Z,15.40
2018-11-23T20:37:07.307Z,15.03
2018-11-23T20:39:34.882Z,13.37
2018-11-23T20:42:02.307Z,15.43
2018-11-23T20:44:29.990Z,15.00
2018-11-23T20:46:57.437Z,16.20
2018-11-23T20:49:24.881Z,15.87
2018-11-23T20:51:52.455Z,14.47
2018-11-23T20:54:19.987Z,16.07
2018-11-23T20:56:47.581Z,15.37
2018-11-23T20:59:15.024Z,15.47
2018-11-23T21:01:42.474Z,15.30
2018-11-23T21:04:09.863Z,14.10
2018-11-23T21:06:37.990Z,14.67
2018-11-23T21:09:08.468Z,17.80
2018-11-23T21:11:36.192Z,15.60
2018-11-23T21:14:04.292Z,15.60
2018-11-23T21:16:31.744Z,14.73
2018-11-23T21:18:59.152Z,16.53
2018-11-23T21:21:26.586Z,14.83
2018-11-23T21:23:54.088Z,13.90
2018-11-23T21:26:21.536Z,15.10
2018-11-23T21:28:48.991Z,14.23
2018-11-23T21:31:16.593Z,15.63
2018-11-23T21:33:43.984Z,15.40
2018-11-23T21:36:11.462Z,15.10
2018-11-23T21:38:38.967Z,13.90
2018-11-23T21:41:06.391Z,15.27
2018-11-23T21:43:33.899Z,15.20
2018-11-23T21:46:01.363Z,14.60
2018-11-23T21:48:30.430Z,13.87
2018-11-23T21:50:57.869Z,14.50
2018-11-23T21:53:25.343Z,14.97
2018-11-23T21:55:52.928Z,13.20
2018-11-23T21:58:20.408Z,14.03
2018-11-23T22:00:47.844Z,13.57
2018-11-23T22:03:15.248Z,14.30
2018-11-23T22:05:42.756Z,14.23
2018-11-23T22:08:10.184Z,15.30
2018-11-23T22:10:37.618Z,15.53
2018-11-23T22:13:05.395Z,14.87
2018-11-23T22:15:32.869Z,15.07
2018-11-23T22:18:00.340Z,15.73
2018-11-23T22:20:27.800Z,15.40
2018-11-23T22:22:55.362Z,14.93
2018-11-23T22:25:23.220Z,13.97
2018-11-23T22:27:50.771Z,14.10
2018-11-23T22:30:25.694Z,14.20
2018-11-23T22:32:53.226Z,13.30
2018-11-23T22:35:20.708Z,14.40
2018-11-23T22:37:48.166Z,13.90
2018-11-23T22:40:18.046Z,14.00
2018-11-23T22:42:46.382Z,14.30
2018-11-23T22:45:14.723Z,14.03
2018-11-23T22:47:42.199Z,14.97
2018-11-23T22:50:18.693Z,15.60
2018-11-23T22:52:46.265Z,15.93
2018-11-23T22:55:14.506Z,13.97
2018-11-23T22:57:41.921Z,13.63
2018-11-23T23:00:19.396Z,15.07
2018-11-23T23:02:47.554Z,13.60
2018-11-23T23:05:15.004Z,14.20
2018-11-23T23:07:42.602Z,13.07
2018-11-23T23:10:10.116Z,14.53
2018-11-23T23:12:37.634Z,14.03
2018-11-23T23:15:07.344Z,14.67
2018-11-23T23:17:34.766Z,14.30
2018-11-23T23:20:02.239Z,13.10
2018-11-23T23:22:29.753Z,14.60
2018-11-23T23:24:57.164Z,14.23
2018-11-23T23:27:24.618Z,15.67
2018-11-23T23:29:52.235Z,14.43
2018-11-23T23:32:19.778Z,15.37
2018-11-23T23:34:47.196Z,12.70
2018-11-23T23:37:14.652Z,13.73
2018-11-23T23:39:42.206Z,15.03
2018-11-23T23:42:09.686Z,17.27
2018-11-23T23:44:37.124Z,16.37
2018-11-23T23:47:04.594Z,13.83
2018-11-23T23:49:31.950Z,15.77
2018-11-23T23:51:59.572Z,15.27
2018-11-23T23:54:26.954Z,15.87
2018-11-23T23:56:54.384Z,15.07
2018-11-23T23:59:21.973Z,17.73
